Time,TemperatureF,DewpointF,PressureIn,WindDirection,WindDirectionDegrees,WindSpeedMPH,WindSpeedGustMPH,Humidity,HourlyPrecipIn,Conditions,Clouds,dailyrainin,SoftwareType,DateUTC
2013-04-02 00:02:00,66.4,64.9,30.00,WNW,285,2.0,3.0,95,0.00,,,0.00,meteohub,2013-04-02 04:02:00,
2013-04-02 00:07:00,66.4,64.9,30.00,WNW,285,3.0,4.0,95,0.00,,,0.00,meteohub,2013-04-02 04:07:00,
2013-04-02 00:12:00,66.2,64.9,30.00,WNW,285,2.0,4.0,96,0.00,,,0.00,meteohub,2013-04-02 04:12:00,
2013-04-02 00:22:00,66.0,64.6,30.00,WNW,285,3.0,4.0,95,0.00,,,0.00,meteohub,2013-04-02 04:22:00,
2013-04-02 00:27:00,66.0,64.8,29.99,WNW,285,2.0,4.0,96,0.00,,,0.00,meteohub,2013-04-02 04:27:00,
2013-04-02 00:37:00,65.8,64.6,29.99,West,279,3.0,5.0,96,0.00,,,0.00,meteohub,2013-04-02 04:37:00,
2013-04-02 00:42:00,66.0,64.8,29.99,West,265,3.0,5.0,96,0.00,,,0.00,meteohub,2013-04-02 04:42:00,
2013-04-02 00:47:00,66.0,64.8,29.99,West,263,2.0,5.0,96,0.00,,,0.00,meteohub,2013-04-02 04:47:00,
2013-04-02 00:57:00,65.8,64.6,29.99,West,263,3.0,5.0,96,0.00,,,0.00,meteohub,2013-04-02 04:57:00,
2013-04-02 01:02:00,65.8,64.6,29.99,West,263,2.0,5.0,96,0.00,,,0.00,meteohub,2013-04-02 05:02:00,
2013-04-02 01:12:00,65.8,64.6,29.99,West,263,1.0,4.0,96,0.00,,,0.00,meteohub,2013-04-02 05:12:00,
2013-04-02 01:17:00,65.8,64.6,29.99,West,263,2.0,4.0,96,0.00,,,0.00,meteohub,2013-04-02 05:17:00,
2013-04-02 01:22:00,65.7,64.4,29.99,West,263,2.0,4.0,96,0.00,,,0.00,meteohub,2013-04-02 05:22:00,
2013-04-02 01:27:00,65.7,64.4,29.98,West,263,2.0,4.0,96,0.00,,,0.00,meteohub,2013-04-02 05:27:00,
2013-04-02 01:37:00,65.5,64.2,29.98,West,263,2.0,4.0,96,0.00,,,0.00,meteohub,2013-04-02 05:37:00,
2013-04-02 01:47:00,65.5,64.2,29.98,West,263,3.0,4.0,96,0.00,,,0.00,meteohub,2013-04-02 05:47:00,
2013-04-02 01:52:00,65.3,64.0,29.98,West,263,2.0,4.0,96,0.00,,,0.00,meteohub,2013-04-02 05:52:00,
2013-04-02 01:57:00,65.1,64.0,29.98,West,263,2.0,5.0,96,0.00,,,0.00,meteohub,2013-04-02 05:57:00,
2013-04-02 02:07:00,65.1,64.0,29.98,West,263,2.0,4.0,96,0.00,,,0.00,meteohub,2013-04-02 06:07:00,
2013-04-02 02:12:00,65.1,64.0,29.98,WSW,257,2.0,5.0,96,0.00,,,0.00,meteohub,2013-04-02 06:12:00,
2013-04-02 02:17:00,65.1,64.0,29.98,WSW,254,4.0,5.0,96,0.00,,,0.00,meteohub,2013-04-02 06:17:00,
2013-04-02 02:22:00,65.1,64.0,29.98,WSW,254,2.0,5.0,96,0.00,,,0.00,meteohub,2013-04-02 06:22:00,
2013-04-02 02:27:00,65.1,64.0,29.98,WSW,254,3.0,5.0,96,0.00,,,0.00,meteohub,2013-04-02 06:27:00,
2013-04-02 02:32:00,65.1,64.0,29.98,WSW,253,4.0,5.0,96,0.00,,,0.00,meteohub,2013-04-02 06:32:00,
2013-04-02 02:37:00,65.1,64.0,29.98,WSW,252,1.0,5.0,96,0.00,,,0.00,meteohub,2013-04-02 06:37:00,
2013-04-02 02:42:00,65.1,64.0,29.98,WSW,248,5.0,5.0,96,0.00,,,0.00,meteohub,2013-04-02 06:42:00,
2013-04-02 02:47:00,65.1,64.0,29.98,WSW,243,3.0,6.0,96,0.00,,,0.00,meteohub,2013-04-02 06:47:00,
2013-04-02 02:52:00,65.1,64.0,29.98,WSW,243,4.0,6.0,96,0.00,,,0.00,meteohub,2013-04-02 06:52:00,
2013-04-02 02:57:00,65.1,64.0,29.98,WSW,240,5.0,6.0,96,0.00,,,0.00,meteohub,2013-04-02 06:57:00,
2013-04-02 03:02:00,65.1,63.7,29.98,SW,232,6.0,6.0,95,0.00,,,0.00,meteohub,2013-04-02 07:02:00,
2013-04-02 03:07:00,65.1,63.7,29.98,SW,227,4.0,6.0,95,0.00,,,0.00,meteohub,2013-04-02 07:07:00,
2013-04-02 03:17:00,65.1,63.7,29.98,SW,226,5.0,7.0,95,0.00,,,0.00,meteohub,2013-04-02 07:17:00,
2013-04-02 03:27:00,65.1,63.7,29.97,SW,227,3.0,7.0,95,0.00,,,0.00,meteohub,2013-04-02 07:27:00,
2013-04-02 03:32:00,65.1,63.7,29.98,SW,229,3.0,6.0,95,0.00,,,0.00,meteohub,2013-04-02 07:32:00,
2013-04-02 03:37:00,65.1,63.7,29.98,SW,229,4.0,6.0,95,0.00,,,0.00,meteohub,2013-04-02 07:37:00,
2013-04-02 03:42:00,64.9,63.5,29.98,SW,229,2.0,6.0,95,0.00,,,0.00,meteohub,2013-04-02 07:42:00,
2013-04-02 03:47:00,64.9,63.5,29.98,SW,229,3.0,5.0,95,0.00,,,0.00,meteohub,2013-04-02 07:47:00,
2013-04-02 03:52:00,64.9,63.5,29.98,SW,229,2.0,5.0,95,0.00,,,0.00,meteohub,2013-04-02 07:52:00,
2013-04-02 04:02:00,64.9,63.5,29.98,SW,229,3.0,5.0,95,0.00,,,0.00,meteohub,2013-04-02 08:02:00,
2013-04-02 04:07:00,64.9,63.5,29.98,SW,229,1.0,5.0,95,0.00,,,0.00,meteohub,2013-04-02 08:07:00,
2013-04-02 04:12:00,64.9,63.5,29.98,SW,229,2.0,5.0,95,0.00,,,0.00,meteohub,2013-04-02 08:12:00,
2013-04-02 04:17:00,64.8,63.3,29.98,SW,229,1.0,4.0,95,0.00,,,0.00,meteohub,2013-04-02 08:17:00,
2013-04-02 04:27:00,64.8,63.3,29.98,SW,229,2.0,4.0,95,0.00,,,0.00,meteohub,2013-04-02 08:27:00,
2013-04-02 04:32:00,64.8,63.3,29.99,SW,229,3.0,4.0,95,0.00,,,0.00,meteohub,2013-04-02 08:32:00,
2013-04-02 04:37:00,64.9,63.5,29.99,SW,229,0.0,4.0,95,0.00,,,0.00,meteohub,2013-04-02 08:37:00,
2013-04-02 04:42:00,64.9,63.5,29.99,SW,229,2.0,4.0,95,0.00,,,0.00,meteohub,2013-04-02 08:42:00,
2013-04-02 04:47:00,64.9,63.5,29.99,SW,229,3.0,3.0,95,0.00,,,0.00,meteohub,2013-04-02 08:47:00,
2013-04-02 04:52:00,65.1,63.7,29.99,SW,229,2.0,4.0,95,0.00,,,0.00,meteohub,2013-04-02 08:52:00,
2013-04-02 04:57:00,65.1,63.3,29.99,SW,229,0.0,5.0,94,0.00,,,0.00,meteohub,2013-04-02 08:57:00,
2013-04-02 05:02:00,65.1,63.3,29.99,WSW,248,3.0,5.0,94,0.00,,,0.00,meteohub,2013-04-02 09:02:00,
2013-04-02 05:07:00,64.9,63.1,29.99,WSW,257,0.0,5.0,94,0.00,,,0.00,meteohub,2013-04-02 09:07:00,
2013-04-02 05:12:00,64.9,62.8,29.99,WSW,257,3.0,5.0,93,0.00,,,0.00,meteohub,2013-04-02 09:12:00,
2013-04-02 05:17:00,64.9,62.8,29.99,WSW,257,2.0,5.0,93,0.00,,,0.00,meteohub,2013-04-02 09:17:00,
2013-04-02 05:22:00,64.8,62.6,29.99,WSW,257,1.0,4.0,93,0.00,,,0.00,meteohub,2013-04-02 09:22:00,
2013-04-02 05:27:00,64.8,62.6,29.99,WSW,257,0.0,4.0,93,0.00,,,0.00,meteohub,2013-04-02 09:27:00,
2013-04-02 05:37:00,64.8,62.6,29.99,WSW,257,1.0,2.0,93,0.00,,,0.00,meteohub,2013-04-02 09:37:00,
2013-04-02 05:42:00,64.6,62.4,29.99,WSW,257,2.0,2.0,93,0.00,,,0.00,meteohub,2013-04-02 09:42:00,
2013-04-02 05:52:00,64.2,62.2,29.99,WSW,257,1.0,3.0,93,0.00,,,0.00,meteohub,2013-04-02 09:52:00,
2013-04-02 05:57:00,64.0,62.1,29.99,WSW,257,3.0,3.0,93,0.00,,,0.00,meteohub,2013-04-02 09:57:00,
2013-04-02 06:02:00,64.0,61.7,29.99,WSW,257,1.0,3.0,92,0.00,,,0.00,meteohub,2013-04-02 10:02:00,
2013-04-02 06:12:00,64.0,61.7,29.99,WSW,257,4.0,4.0,92,0.00,,,0.00,meteohub,2013-04-02 10:12:00,
2013-04-02 06:17:00,64.0,61.7,29.99,WSW,257,0.0,4.0,92,0.00,,,0.00,meteohub,2013-04-02 10:17:00,
2013-04-02 06:22:00,64.0,61.7,29.99,WSW,257,2.0,4.0,92,0.00,,,0.00,meteohub,2013-04-02 10:22:00,
2013-04-02 06:32:00,63.9,61.9,30.00,WSW,257,3.0,4.0,93,0.00,,,0.00,meteohub,2013-04-02 10:32:00,
2013-04-02 06:42:00,63.7,61.7,30.00,WSW,257,1.0,4.0,93,0.00,,,0.00,meteohub,2013-04-02 10:42:00,
2013-04-02 06:47:00,63.7,61.7,30.00,WSW,257,3.0,4.0,93,0.00,,,0.00,meteohub,2013-04-02 10:47:00,
2013-04-02 06:57:00,63.5,61.5,30.01,WSW,257,2.0,4.0,93,0.00,,,0.00,meteohub,2013-04-02 10:57:00,
2013-04-02 07:02:00,63.3,61.3,30.01,WSW,257,3.0,4.0,93,0.00,,,0.00,meteohub,2013-04-02 11:02:00,
2013-04-02 07:07:00,63.3,61.5,30.01,West,260,3.0,4.0,94,0.00,,,0.00,meteohub,2013-04-02 11:07:00,
2013-04-02 07:12:00,63.3,61.5,30.02,West,261,4.0,6.0,94,0.00,,,0.00,meteohub,2013-04-02 11:12:00,
2013-04-02 07:17:00,63.3,61.5,30.02,West,264,3.0,7.0,94,0.00,,,0.00,meteohub,2013-04-02 11:17:00,
2013-04-02 07:22:00,63.5,61.7,30.02,West,265,3.0,7.0,94,0.00,,,0.00,meteohub,2013-04-02 11:22:00,
2013-04-02 07:27:00,63.5,61.7,30.02,West,269,1.0,7.0,94,0.00,,,0.00,meteohub,2013-04-02 11:27:00,
2013-04-02 07:32:00,63.5,61.7,30.02,West,269,2.0,6.0,94,0.00,,,0.00,meteohub,2013-04-02 11:32:00,
2013-04-02 07:37:00,63.5,61.7,30.03,West,269,5.0,5.0,94,0.00,,,0.00,meteohub,2013-04-02 11:37:00,
2013-04-02 07:42:00,63.7,61.7,30.03,West,269,2.0,5.0,93,0.00,,,0.00,meteohub,2013-04-02 11:42:00,
2013-04-02 07:52:00,63.7,61.9,30.03,West,276,3.0,5.0,94,0.00,,,0.00,meteohub,2013-04-02 11:52:00,
2013-04-02 07:57:00,63.9,62.1,30.03,West,276,3.0,5.0,94,0.00,,,0.00,meteohub,2013-04-02 11:57:00,
2013-04-02 08:07:00,64.0,62.2,30.04,West,279,4.0,5.0,94,0.00,,,0.00,meteohub,2013-04-02 12:07:00,
2013-04-02 08:12:00,64.2,62.4,30.04,West,279,3.0,5.0,94,0.00,,,0.00,meteohub,2013-04-02 12:12:00,
2013-04-02 08:17:00,64.6,62.8,30.04,West,279,2.0,5.0,94,0.00,,,0.00,meteohub,2013-04-02 12:17:00,
2013-04-02 08:22:00,64.8,63.0,30.04,West,279,2.0,5.0,94,0.00,,,0.00,meteohub,2013-04-02 12:22:00,
2013-04-02 08:27:00,64.9,62.8,30.04,West,279,4.0,5.0,93,0.00,,,0.00,meteohub,2013-04-02 12:27:00,
2013-04-02 08:32:00,65.3,63.1,30.04,West,281,3.0,5.0,93,0.00,,,0.00,meteohub,2013-04-02 12:32:00,
2013-04-02 08:42:00,65.8,63.7,30.04,WNW,285,0.0,5.0,93,0.00,,,0.00,meteohub,2013-04-02 12:42:00,
2013-04-02 08:47:00,66.0,63.9,30.05,WNW,296,3.0,5.0,93,0.00,,,0.00,meteohub,2013-04-02 12:47:00,
2013-04-02 08:57:00,66.6,64.2,30.05,WNW,299,3.0,5.0,92,0.00,,,0.00,meteohub,2013-04-02 12:57:00,
2013-04-02 09:07:00,66.9,63.9,30.05,NW,308,4.0,6.0,90,0.00,,,0.00,meteohub,2013-04-02 13:07:00,
2013-04-02 09:12:00,66.9,63.5,30.05,NW,310,3.0,7.0,89,0.00,,,0.00,meteohub,2013-04-02 13:12:00,
2013-04-02 09:17:00,67.3,63.9,30.05,NW,323,1.0,7.0,89,0.00,,,0.00,meteohub,2013-04-02 13:17:00,
2013-04-02 09:27:00,68.2,64.4,30.05,NW,319,1.0,7.0,88,0.00,,,0.00,meteohub,2013-04-02 13:27:00,
2013-04-02 09:32:00,68.4,64.4,30.05,NW,319,3.0,6.0,87,0.00,,,0.00,meteohub,2013-04-02 13:32:00,
2013-04-02 09:37:00,68.5,64.2,30.05,NW,321,5.0,6.0,86,0.00,,,0.00,meteohub,2013-04-02 13:37:00,
2013-04-02 09:42:00,69.1,64.4,30.05,NW,323,1.0,6.0,85,0.00,,,0.00,meteohub,2013-04-02 13:42:00,
2013-04-02 09:47:00,69.4,64.4,30.06,NNW,338,0.0,5.0,84,0.00,,,0.00,meteohub,2013-04-02 13:47:00,
2013-04-02 09:52:00,69.8,64.8,30.06,NNW,338,0.0,5.0,84,0.00,,,0.00,meteohub,2013-04-02 13:52:00,
2013-04-02 09:57:00,70.2,64.4,30.06,NNW,346,4.0,4.0,82,0.00,,,0.00,meteohub,2013-04-02 13:57:00,
2013-04-02 10:02:00,70.2,64.4,30.06,North,5,0.0,5.0,82,0.00,,,0.00,meteohub,2013-04-02 14:02:00,
2013-04-02 10:07:00,70.5,64.4,30.06,North,5,5.0,5.0,81,0.00,,,0.00,meteohub,2013-04-02 14:07:00,
2013-04-02 10:17:00,70.5,63.7,30.06,North,5,3.0,6.0,79,0.00,,,0.00,meteohub,2013-04-02 14:17:00,
2013-04-02 10:22:00,70.9,64.0,30.06,NNE,14,2.0,6.0,79,0.00,,,0.00,meteohub,2013-04-02 14:22:00,
2013-04-02 10:32:00,71.2,64.0,30.06,NNE,19,2.0,7.0,78,0.00,,,0.00,meteohub,2013-04-02 14:32:00,
2013-04-02 10:37:00,71.4,63.9,30.06,NNE,19,1.0,7.0,77,0.00,,,0.00,meteohub,2013-04-02 14:37:00,
2013-04-02 10:47:00,72.1,64.9,30.07,NNE,23,2.0,6.0,78,0.00,,,0.00,meteohub,2013-04-02 14:47:00,
2013-04-02 10:52:00,72.3,64.4,30.07,NNE,19,1.0,6.0,76,0.00,,,0.00,meteohub,2013-04-02 14:52:00,
2013-04-02 11:02:00,72.3,64.4,30.06,NW,308,1.0,6.0,76,0.00,,,0.00,meteohub,2013-04-02 15:02:00,
2013-04-02 11:07:00,72.7,63.5,30.06,NW,305,2.0,6.0,73,0.00,,,0.00,meteohub,2013-04-02 15:07:00,
2013-04-02 11:12:00,72.7,64.2,30.06,NW,306,3.0,6.0,75,0.00,,,0.00,meteohub,2013-04-02 15:12:00,
2013-04-02 11:17:00,73.6,65.1,30.06,NW,309,2.0,5.0,75,0.00,,,0.00,meteohub,2013-04-02 15:17:00,
2013-04-02 11:22:00,73.8,64.9,30.06,NW,310,2.0,5.0,74,0.00,,,0.00,meteohub,2013-04-02 15:22:00,
2013-04-02 11:27:00,73.9,64.8,30.06,NW,313,1.0,5.0,73,0.00,,,0.00,meteohub,2013-04-02 15:27:00,
2013-04-02 11:32:00,73.9,65.1,30.06,WNW,296,5.0,5.0,74,0.00,,,0.00,meteohub,2013-04-02 15:32:00,
2013-04-02 11:37:00,73.6,64.8,30.06,West,273,0.0,6.0,74,0.00,,,0.00,meteohub,2013-04-02 15:37:00,
2013-04-02 11:47:00,74.8,65.1,30.06,West,273,1.0,6.0,72,0.00,,,0.00,meteohub,2013-04-02 15:47:00,
2013-04-02 11:52:00,75.6,65.8,30.06,NNW,348,4.0,4.0,72,0.00,,,0.00,meteohub,2013-04-02 15:52:00,
2013-04-02 12:02:00,76.1,65.7,30.06,East,85,2.0,4.0,70,0.00,,,0.00,meteohub,2013-04-02 16:02:00,
2013-04-02 12:12:00,76.5,65.5,30.05,East,85,1.0,7.0,69,0.00,,,0.00,meteohub,2013-04-02 16:12:00,
2013-04-02 12:22:00,77.2,64.9,30.05,ENE,66,4.0,7.0,66,0.00,,,0.00,meteohub,2013-04-02 16:22:00,
2013-04-02 12:32:00,76.8,64.6,30.05,ENE,78,0.0,7.0,66,0.00,,,0.00,meteohub,2013-04-02 16:32:00,
2013-04-02 12:37:00,77.5,64.8,30.05,ENE,76,1.0,8.0,65,0.00,,,0.00,meteohub,2013-04-02 16:37:00,
2013-04-02 12:47:00,79.0,64.8,30.05,East,86,2.0,4.0,62,0.00,,,0.00,meteohub,2013-04-02 16:47:00,
2013-04-02 12:57:00,79.0,63.9,30.04,ENE,57,0.0,7.0,60,0.00,,,0.00,meteohub,2013-04-02 16:57:00,
2013-04-02 13:02:00,79.5,63.9,30.05,NE,43,2.0,7.0,59,0.00,,,0.00,meteohub,2013-04-02 17:02:00,
2013-04-02 13:07:00,79.3,63.3,30.04,NE,51,1.0,7.0,58,0.00,,,0.00,meteohub,2013-04-02 17:07:00,
2013-04-02 13:12:00,79.9,64.2,30.04,NE,51,1.0,7.0,59,0.00,,,0.00,meteohub,2013-04-02 17:12:00,
2013-04-02 13:17:00,80.8,64.6,30.04,ENE,68,4.0,5.0,58,0.00,,,0.00,meteohub,2013-04-02 17:17:00,
2013-04-02 13:22:00,80.2,65.1,30.04,ENE,77,2.0,5.0,60,0.00,,,0.00,meteohub,2013-04-02 17:22:00,
2013-04-02 13:27:00,80.2,66.0,30.04,WSW,257,5.0,6.0,62,0.00,,,0.00,meteohub,2013-04-02 17:27:00,
2013-04-02 13:32:00,78.6,66.4,30.04,West,275,6.0,8.0,66,0.00,,,0.00,meteohub,2013-04-02 17:32:00,
2013-04-02 13:42:00,77.7,67.6,30.03,SW,218,8.0,10.0,71,0.00,,,0.00,meteohub,2013-04-02 17:42:00,
2013-04-02 13:47:00,76.8,66.7,30.03,SW,225,10.0,11.0,71,0.00,,,0.00,meteohub,2013-04-02 17:47:00,
2013-04-02 13:57:00,76.8,66.7,30.02,SW,227,2.0,11.0,71,0.00,,,0.00,meteohub,2013-04-02 17:57:00,
2013-04-02 14:02:00,77.2,67.1,30.02,SW,227,2.0,11.0,71,0.00,,,0.00,meteohub,2013-04-02 18:02:00,
2013-04-02 14:07:00,77.5,67.5,30.02,WSW,258,3.0,11.0,71,0.00,,,0.00,meteohub,2013-04-02 18:07:00,
2013-04-02 14:12:00,77.7,66.7,30.01,West,263,7.0,11.0,69,0.00,,,0.00,meteohub,2013-04-02 18:12:00,
2013-04-02 14:17:00,77.7,66.7,30.01,WSW,238,7.0,9.0,69,0.00,,,0.00,meteohub,2013-04-02 18:17:00,
2013-04-02 14:27:00,77.9,67.3,30.01,WSW,242,8.0,10.0,70,0.00,,,0.00,meteohub,2013-04-02 18:27:00,
2013-04-02 14:32:00,78.3,67.6,30.01,West,267,5.0,10.0,70,0.00,,,0.00,meteohub,2013-04-02 18:32:00,
2013-04-02 14:37:00,78.6,66.7,30.01,SW,229,2.0,11.0,67,0.00,,,0.00,meteohub,2013-04-02 18:37:00,
2013-04-02 14:47:00,79.2,67.3,30.00,West,262,4.0,11.0,67,0.00,,,0.00,meteohub,2013-04-02 18:47:00,
2013-04-02 14:52:00,79.2,66.7,30.00,WNW,302,4.0,11.0,66,0.00,,,0.00,meteohub,2013-04-02 18:52:00,
2013-04-02 14:57:00,79.2,66.7,30.00,SW,227,0.0,10.0,66,0.00,,,0.00,meteohub,2013-04-02 18:57:00,
2013-04-02 15:02:00,79.9,67.5,30.00,NW,308,7.0,10.0,66,0.00,,,0.00,meteohub,2013-04-02 19:02:00,
2013-04-02 15:07:00,79.2,66.7,29.99,WNW,286,7.0,13.0,66,0.00,,,0.00,meteohub,2013-04-02 19:07:00,
2013-04-02 15:17:00,77.5,66.6,29.99,WNW,286,6.0,13.0,69,0.00,,,0.00,meteohub,2013-04-02 19:17:00,
2013-04-02 15:27:00,78.1,67.8,29.99,WSW,250,6.0,13.0,71,0.00,,,0.00,meteohub,2013-04-02 19:27:00,
2013-04-02 15:37:00,78.1,67.1,29.99,West,261,6.0,11.0,69,0.00,,,0.00,meteohub,2013-04-02 19:37:00,
2013-04-02 15:42:00,78.1,67.1,29.99,WNW,294,4.0,11.0,69,0.00,,,0.00,meteohub,2013-04-02 19:42:00,
2013-04-02 15:52:00,78.1,67.1,29.99,WNW,288,7.0,10.0,69,0.00,,,0.00,meteohub,2013-04-02 19:52:00,
2013-04-02 15:57:00,77.7,66.4,29.99,WSW,255,4.0,11.0,68,0.00,,,0.00,meteohub,2013-04-02 19:57:00,
2013-04-02 16:07:00,78.1,66.2,29.99,NW,318,5.0,11.0,67,0.00,,,0.00,meteohub,2013-04-02 20:07:00,
2013-04-02 16:12:00,77.9,66.6,29.99,WNW,294,8.0,13.0,68,0.00,,,0.00,meteohub,2013-04-02 20:12:00,
2013-04-02 16:22:00,78.1,66.7,29.99,NW,306,5.0,13.0,68,0.00,,,0.00,meteohub,2013-04-02 20:22:00,
2013-04-02 16:27:00,77.7,66.7,29.99,WNW,284,10.0,13.0,69,0.00,,,0.00,meteohub,2013-04-02 20:27:00,
2013-04-02 16:32:00,77.5,66.2,29.99,NW,309,5.0,13.0,68,0.00,,,0.00,meteohub,2013-04-02 20:32:00,
2013-04-02 16:42:00,76.8,66.2,29.99,WNW,290,7.0,12.0,70,0.00,,,0.00,meteohub,2013-04-02 20:42:00,
2013-04-02 16:47:00,76.1,66.0,29.99,WNW,290,10.0,11.0,71,0.00,,,0.00,meteohub,2013-04-02 20:47:00,
2013-04-02 16:52:00,75.7,65.7,29.99,NW,305,8.0,11.0,71,0.00,,,0.00,meteohub,2013-04-02 20:52:00,
2013-04-02 17:02:00,75.7,65.7,29.99,WNW,284,10.0,11.0,71,0.00,,,0.00,meteohub,2013-04-02 21:02:00,
2013-04-02 17:07:00,75.2,65.5,29.99,West,277,7.0,12.0,72,0.00,,,0.00,meteohub,2013-04-02 21:07:00,
2013-04-02 17:12:00,75.0,65.3,29.99,WSW,254,6.0,12.0,72,0.00,,,0.00,meteohub,2013-04-02 21:12:00,
2013-04-02 17:22:00,75.0,64.9,29.99,West,272,7.0,11.0,71,0.00,,,0.00,meteohub,2013-04-02 21:22:00,
2013-04-02 17:32:00,75.0,64.9,29.99,West,272,8.0,11.0,71,0.00,,,0.00,meteohub,2013-04-02 21:32:00,
2013-04-02 17:37:00,75.4,64.9,29.99,WNW,289,9.0,10.0,70,0.00,,,0.00,meteohub,2013-04-02 21:37:00,
2013-04-02 17:47:00,74.8,64.4,29.99,West,277,5.0,11.0,70,0.00,,,0.00,meteohub,2013-04-02 21:47:00,
2013-04-02 17:52:00,74.7,64.2,29.99,NW,307,5.0,11.0,70,0.00,,,0.00,meteohub,2013-04-02 21:52:00,
2013-04-02 18:02:00,74.8,63.5,29.99,WNW,286,5.0,11.0,68,0.00,,,0.00,meteohub,2013-04-02 22:02:00,
2013-04-02 18:12:00,74.8,63.1,29.99,NW,304,9.0,12.0,67,0.00,,,0.00,meteohub,2013-04-02 22:12:00,
2013-04-02 18:17:00,74.7,62.6,30.00,NW,317,6.0,12.0,66,0.00,,,0.00,meteohub,2013-04-02 22:17:00,
2013-04-02 18:27:00,74.3,62.6,29.99,WNW,284,3.0,11.0,67,0.00,,,0.00,meteohub,2013-04-02 22:27:00,
2013-04-02 18:32:00,74.1,62.4,29.99,West,269,4.0,13.0,67,0.00,,,0.00,meteohub,2013-04-02 22:32:00,
2013-04-02 18:37:00,74.1,63.0,29.99,West,273,3.0,13.0,68,0.00,,,0.00,meteohub,2013-04-02 22:37:00,
2013-04-02 18:42:00,74.1,62.4,30.00,West,266,1.0,13.0,67,0.00,,,0.00,meteohub,2013-04-02 22:42:00,
2013-04-02 18:52:00,74.3,62.2,30.00,West,264,7.0,9.0,66,0.00,,,0.00,meteohub,2013-04-02 22:52:00,
2013-04-02 19:02:00,73.8,61.3,30.00,West,277,5.0,9.0,65,0.00,,,0.00,meteohub,2013-04-02 23:02:00,
2013-04-02 19:07:00,73.6,61.5,30.00,WNW,285,4.0,9.0,66,0.00,,,0.00,meteohub,2013-04-02 23:07:00,
2013-04-02 19:12:00,73.2,61.2,30.00,WNW,295,3.0,8.0,66,0.00,,,0.00,meteohub,2013-04-02 23:12:00,
2013-04-02 19:22:00,72.9,61.7,29.99,West,269,2.0,8.0,68,0.00,,,0.00,meteohub,2013-04-02 23:22:00,
2013-04-02 19:32:00,72.5,61.7,29.99,West,281,2.0,7.0,69,0.00,,,0.00,meteohub,2013-04-02 23:32:00,
2013-04-02 19:37:00,72.0,61.2,29.99,WNW,294,3.0,6.0,69,0.00,,,0.00,meteohub,2013-04-02 23:37:00,
2013-04-02 19:47:00,71.2,61.3,29.99,West,278,0.0,6.0,71,0.00,,,0.00,meteohub,2013-04-02 23:47:00,
2013-04-02 19:52:00,70.9,61.3,29.99,West,278,3.0,6.0,72,0.00,,,0.00,meteohub,2013-04-02 23:52:00,
2013-04-02 20:02:00,70.3,61.7,30.00,West,278,2.0,5.0,74,0.00,,,0.00,meteohub,2013-04-03 00:02:00,
2013-04-02 20:12:00,70.0,61.7,30.01,West,270,3.0,6.0,75,0.00,,,0.00,meteohub,2013-04-03 00:12:00,
2013-04-02 20:17:00,69.6,61.7,30.01,West,270,1.0,6.0,76,0.00,,,0.00,meteohub,2013-04-03 00:17:00,
2013-04-02 20:27:00,69.3,61.7,30.01,West,270,3.0,6.0,77,0.00,,,0.00,meteohub,2013-04-03 00:27:00,
2013-04-02 20:32:00,69.1,61.9,30.01,West,270,1.0,5.0,78,0.00,,,0.00,meteohub,2013-04-03 00:32:00,
2013-04-02 20:37:00,69.1,62.2,30.01,West,270,3.0,4.0,79,0.00,,,0.00,meteohub,2013-04-03 00:37:00,
2013-04-02 20:42:00,68.7,62.2,30.01,West,270,0.0,4.0,80,0.00,,,0.00,meteohub,2013-04-03 00:42:00,
2013-04-02 20:52:00,68.5,62.4,30.01,West,270,2.0,4.0,81,0.00,,,0.00,meteohub,2013-04-03 00:52:00,
2013-04-02 20:57:00,68.4,62.2,30.01,West,270,1.0,3.0,81,0.00,,,0.00,meteohub,2013-04-03 00:57:00,
2013-04-02 21:07:00,68.0,62.2,30.01,West,270,3.0,4.0,82,0.00,,,0.00,meteohub,2013-04-03 01:07:00,
2013-04-02 21:12:00,67.8,62.4,30.01,West,270,1.0,4.0,83,0.00,,,0.00,meteohub,2013-04-03 01:12:00,
2013-04-02 21:22:00,67.8,62.4,30.01,West,270,2.0,3.0,83,0.00,,,0.00,meteohub,2013-04-03 01:22:00,
2013-04-02 21:27:00,67.6,62.6,30.02,West,270,2.0,2.0,84,0.00,,,0.00,meteohub,2013-04-03 01:27:00,
2013-04-02 21:32:00,67.5,62.4,30.02,West,270,1.0,3.0,84,0.00,,,0.00,meteohub,2013-04-03 01:32:00,
2013-04-02 21:42:00,67.5,62.4,30.02,West,270,0.0,3.0,84,0.00,,,0.00,meteohub,2013-04-03 01:42:00,
2013-04-02 21:52:00,67.3,62.2,30.02,West,270,0.0,3.0,84,0.00,,,0.00,meteohub,2013-04-03 01:52:00,
2013-04-02 21:57:00,67.1,62.1,30.01,West,270,0.0,0.0,84,0.00,,,0.00,meteohub,2013-04-03 01:57:00,
2013-04-02 22:07:00,66.7,62.1,30.01,West,270,1.0,0.0,85,0.00,,,0.00,meteohub,2013-04-03 02:07:00,
2013-04-02 22:12:00,66.6,62.2,30.01,West,270,0.0,1.0,86,0.00,,,0.00,meteohub,2013-04-03 02:12:00,
2013-04-02 22:22:00,66.0,61.7,30.01,West,270,0.0,1.0,86,0.00,,,0.00,meteohub,2013-04-03 02:22:00,
2013-04-02 22:32:00,65.8,62.4,30.04,ENE,78,2.0,2.0,89,0.00,,,0.00,meteohub,2013-04-03 02:32:00,
2013-04-02 22:42:00,66.4,62.8,30.04,ENE,78,1.0,12.0,88,0.00,,,0.00,meteohub,2013-04-03 02:42:00,
2013-04-02 22:47:00,66.4,62.4,30.04,ENE,78,0.0,12.0,87,0.00,,,0.00,meteohub,2013-04-03 02:47:00,
2013-04-02 22:52:00,66.4,62.4,30.04,ENE,78,0.0,3.0,87,0.00,,,0.00,meteohub,2013-04-03 02:52:00,
2013-04-02 23:02:00,66.0,62.1,30.05,ENE,78,1.0,1.0,87,0.00,,,0.00,meteohub,2013-04-03 03:02:00,
2013-04-02 23:07:00,65.8,62.2,30.05,ENE,78,1.0,2.0,88,0.00,,,0.00,meteohub,2013-04-03 03:07:00,
2013-04-02 23:17:00,65.7,62.1,30.05,ENE,78,0.0,2.0,88,0.00,,,0.00,meteohub,2013-04-03 03:17:00,
2013-04-02 23:22:00,65.7,62.1,30.05,ENE,78,0.0,1.0,88,0.00,,,0.00,meteohub,2013-04-03 03:22:00,
2013-04-02 23:32:00,65.7,62.2,30.05,ENE,78,0.0,1.0,89,0.00,,,0.00,meteohub,2013-04-03 03:32:00,
2013-04-02 23:37:00,65.8,62.4,30.06,ENE,78,3.0,3.0,89,0.00,,,0.00,meteohub,2013-04-03 03:37:00,
2013-04-02 23:42:00,66.0,62.6,30.06,ENE,78,3.0,3.0,89,0.00,,,0.00,meteohub,2013-04-03 03:42:00,
2013-04-02 23:47:00,66.0,62.6,30.05,ENE,78,1.0,4.0,89,0.00,,,0.00,meteohub,2013-04-03 03:47:00,
2013-04-02 23:52:00,66.0,62.6,30.05,ENE,78,2.0,4.0,89,0.00,,,0.00,meteohub,2013-04-03 03:52:00,